sensor_id;sensor_type;location;lat;lon;timestamp;P1;durP1;ratioP1;P2;durP2;ratioP2
47896;SDS011;39629;51.400;5.494;2023-11-21T00:04:40;9.45;;;5.05;;
47896;SDS011;39629;51.400;5.494;2023-11-21T00:09:42;12.35;;;5.70;;
47896;SDS011;39629;51.400;5.494;2023-11-21T00:14:45;10.82;;;5.60;;
47896;SDS011;39629;51.400;5.494;2023-11-21T00:19:47;11.88;;;5.95;;
47896;SDS011;39629;51.400;5.494;2023-11-21T00:24:48;13.45;;;5.65;;
47896;SDS011;39629;51.400;5.494;2023-11-21T00:29:51;9.48;;;4.85;;
47896;SDS011;39629;51.400;5.494;2023-11-21T00:34:53;11.75;;;5.88;;
47896;SDS011;39629;51.400;5.494;2023-11-21T00:39:55;10.07;;;5.30;;
47896;SDS011;39629;51.400;5.494;2023-11-21T00:44:58;10.18;;;5.07;;
47896;SDS011;39629;51.400;5.494;2023-11-21T00:50:00;11.35;;;5.35;;
47896;SDS011;39629;51.400;5.494;2023-11-21T00:55:02;14.85;;;6.38;;
47896;SDS011;39629;51.400;5.494;2023-11-21T01:00:07;7.75;;;4.28;;
47896;SDS011;39629;51.400;5.494;2023-11-21T01:05:13;9.80;;;4.88;;
47896;SDS011;39629;51.400;5.494;2023-11-21T01:10:15;11.80;;;5.03;;
47896;SDS011;39629;51.400;5.494;2023-11-21T01:15:18;11.35;;;5.93;;
47896;SDS011;39629;51.400;5.494;2023-11-21T01:20:20;11.18;;;5.80;;
47896;SDS011;39629;51.400;5.494;2023-11-21T01:25:22;10.07;;;5.15;;
47896;SDS011;39629;51.400;5.494;2023-11-21T01:30:25;11.48;;;5.70;;
47896;SDS011;39629;51.400;5.494;2023-11-21T01:35:26;10.60;;;5.35;;
47896;SDS011;39629;51.400;5.494;2023-11-21T01:40:28;11.32;;;5.20;;
47896;SDS011;39629;51.400;5.494;2023-11-21T01:45:32;9.57;;;5.18;;
47896;SDS011;39629;51.400;5.494;2023-11-21T01:50:34;10.30;;;5.03;;
47896;SDS011;39629;51.400;5.494;2023-11-21T01:55:35;10.50;;;5.63;;
47896;SDS011;39629;51.400;5.494;2023-11-21T02:00:40;11.05;;;5.47;;
47896;SDS011;39629;51.400;5.494;2023-11-21T02:05:42;10.98;;;5.25;;
47896;SDS011;39629;51.400;5.494;2023-11-21T02:10:43;13.13;;;5.40;;
47896;SDS011;39629;51.400;5.494;2023-11-21T02:15:47;12.52;;;5.55;;
47896;SDS011;39629;51.400;5.494;2023-11-21T02:20:50;16.23;;;5.50;;
47896;SDS011;39629;51.400;5.494;2023-11-21T02:25:53;14.27;;;6.32;;
47896;SDS011;39629;51.400;5.494;2023-11-21T02:30:55;15.27;;;6.50;;
47896;SDS011;39629;51.400;5.494;2023-11-21T02:35:58;16.98;;;7.28;;
47896;SDS011;39629;51.400;5.494;2023-11-21T02:41:01;18.88;;;7.88;;
47896;SDS011;39629;51.400;5.494;2023-11-21T02:46:02;22.83;;;8.50;;
47896;SDS011;39629;51.400;5.494;2023-11-21T02:51:04;26.55;;;7.72;;
47896;SDS011;39629;51.400;5.494;2023-11-21T02:56:08;42.20;;;8.32;;
47896;SDS011;39629;51.400;5.494;2023-11-21T03:01:09;45.93;;;8.67;;
47896;SDS011;39629;51.400;5.494;2023-11-21T03:06:12;34.08;;;8.75;;
47896;SDS011;39629;51.400;5.494;2023-11-21T03:11:16;16.48;;;6.78;;
47896;SDS011;39629;51.400;5.494;2023-11-21T03:16:19;17.23;;;7.90;;
47896;SDS011;39629;51.400;5.494;2023-11-21T03:21:20;23.20;;;7.07;;
47896;SDS011;39629;51.400;5.494;2023-11-21T03:26:24;15.05;;;6.80;;
47896;SDS011;39629;51.400;5.494;2023-11-21T03:31:25;17.02;;;6.68;;
47896;SDS011;39629;51.400;5.494;2023-11-21T03:36:27;12.50;;;6.70;;
47896;SDS011;39629;51.400;5.494;2023-11-21T03:41:30;19.95;;;6.70;;
47896;SDS011;39629;51.400;5.494;2023-11-21T03:46:32;21.98;;;6.90;;
47896;SDS011;39629;51.400;5.494;2023-11-21T03:51:34;26.98;;;7.18;;
47896;SDS011;39629;51.400;5.494;2023-11-21T03:56:39;24.87;;;7.23;;
47896;SDS011;39629;51.400;5.494;2023-11-21T04:01:40;21.67;;;6.40;;
47896;SDS011;39629;51.400;5.494;2023-11-21T04:06:42;20.58;;;6.55;;
47896;SDS011;39629;51.400;5.494;2023-11-21T04:11:45;39.55;;;6.88;;
47896;SDS011;39629;51.400;5.494;2023-11-21T04:16:47;20.75;;;6.35;;
47896;SDS011;39629;51.400;5.494;2023-11-21T04:21:49;23.55;;;6.57;;
47896;SDS011;39629;51.400;5.494;2023-11-21T04:26:52;21.58;;;6.13;;
47896;SDS011;39629;51.400;5.494;2023-11-21T04:31:54;62.93;;;7.37;;
47896;SDS011;39629;51.400;5.494;2023-11-21T04:36:56;13.02;;;5.80;;
47896;SDS011;39629;51.400;5.494;2023-11-21T04:41:59;13.82;;;5.43;;
47896;SDS011;39629;51.400;5.494;2023-11-21T04:47:00;14.35;;;6.05;;
47896;SDS011;39629;51.400;5.494;2023-11-21T04:52:04;20.38;;;6.18;;
47896;SDS011;39629;51.400;5.494;2023-11-21T04:57:08;16.55;;;5.75;;
47896;SDS011;39629;51.400;5.494;2023-11-21T05:02:10;14.90;;;6.75;;
47896;SDS011;39629;51.400;5.494;2023-11-21T05:07:12;15.43;;;6.05;;
47896;SDS011;39629;51.400;5.494;2023-11-21T05:12:15;12.73;;;7.00;;
47896;SDS011;39629;51.400;5.494;2023-11-21T05:17:17;22.73;;;7.13;;
47896;SDS011;39629;51.400;5.494;2023-11-21T05:22:18;10.85;;;5.72;;
47896;SDS011;39629;51.400;5.494;2023-11-21T05:27:22;13.32;;;6.55;;
47896;SDS011;39629;51.400;5.494;2023-11-21T05:32:23;21.08;;;7.35;;
47896;SDS011;39629;51.400;5.494;2023-11-21T05:37:25;19.05;;;6.93;;
47896;SDS011;39629;51.400;5.494;2023-11-21T05:42:28;13.38;;;6.60;;
47896;SDS011;39629;51.400;5.494;2023-11-21T05:47:31;15.95;;;7.20;;
47896;SDS011;39629;51.400;5.494;2023-11-21T05:52:32;13.23;;;6.53;;
47896;SDS011;39629;51.400;5.494;2023-11-21T05:57:36;12.07;;;6.38;;
47896;SDS011;39629;51.400;5.494;2023-11-21T06:02:39;13.57;;;6.72;;
47896;SDS011;39629;51.400;5.494;2023-11-21T06:07:41;13.13;;;6.95;;
47896;SDS011;39629;51.400;5.494;2023-11-21T06:12:44;12.77;;;6.63;;
47896;SDS011;39629;51.400;5.494;2023-11-21T06:17:46;12.70;;;6.18;;
47896;SDS011;39629;51.400;5.494;2023-11-21T06:22:52;15.25;;;7.00;;
47896;SDS011;39629;51.400;5.494;2023-11-21T06:27:55;14.68;;;6.60;;
47896;SDS011;39629;51.400;5.494;2023-11-21T06:32:56;12.63;;;6.68;;
47896;SDS011;39629;51.400;5.494;2023-11-21T06:37:59;13.27;;;7.03;;
47896;SDS011;39629;51.400;5.494;2023-11-21T06:43:02;15.20;;;7.18;;
47896;SDS011;39629;51.400;5.494;2023-11-21T06:48:05;13.52;;;6.28;;
47896;SDS011;39629;51.400;5.494;2023-11-21T06:53:06;13.13;;;5.82;;
47896;SDS011;39629;51.400;5.494;2023-11-21T06:58:11;15.40;;;6.78;;
47896;SDS011;39629;51.400;5.494;2023-11-21T07:03:14;20.80;;;8.52;;
47896;SDS011;39629;51.400;5.494;2023-11-21T07:08:16;14.30;;;6.68;;
47896;SDS011;39629;51.400;5.494;2023-11-21T07:13:19;17.83;;;7.93;;
47896;SDS011;39629;51.400;5.494;2023-11-21T07:18:21;22.17;;;8.20;;
47896;SDS011;39629;51.400;5.494;2023-11-21T07:23:23;20.42;;;7.32;;
47896;SDS011;39629;51.400;5.494;2023-11-21T07:28:26;24.52;;;8.57;;
47896;SDS011;39629;51.400;5.494;2023-11-21T07:33:28;20.55;;;8.45;;
47896;SDS011;39629;51.400;5.494;2023-11-21T07:38:29;21.13;;;7.50;;
47896;SDS011;39629;51.400;5.494;2023-11-21T07:43:32;31.65;;;9.25;;
47896;SDS011;39629;51.400;5.494;2023-11-21T07:48:35;29.08;;;9.00;;
47896;SDS011;39629;51.400;5.494;2023-11-21T07:53:36;20.60;;;7.53;;
47896;SDS011;39629;51.400;5.494;2023-11-21T07:58:39;19.65;;;6.78;;
47896;SDS011;39629;51.400;5.494;2023-11-21T08:03:41;27.85;;;9.57;;
47896;SDS011;39629;51.400;5.494;2023-11-21T08:08:44;12.32;;;5.10;;
47896;SDS011;39629;51.400;5.494;2023-11-21T08:13:48;22.77;;;8.48;;
47896;SDS011;39629;51.400;5.494;2023-11-21T08:18:49;29.05;;;9.85;;
47896;SDS011;39629;51.400;5.494;2023-11-21T08:23:52;18.38;;;6.82;;
47896;SDS011;39629;51.400;5.494;2023-11-21T08:28:55;27.70;;;9.35;;
47896;SDS011;39629;51.400;5.494;2023-11-21T08:33:57;25.45;;;8.30;;
47896;SDS011;39629;51.400;5.494;2023-11-21T08:39:00;27.08;;;9.00;;
47896;SDS011;39629;51.400;5.494;2023-11-21T08:44:03;30.85;;;10.40;;
47896;SDS011;39629;51.400;5.494;2023-11-21T08:49:07;27.73;;;9.23;;
47896;SDS011;39629;51.400;5.494;2023-11-21T08:54:08;34.53;;;11.13;;
47896;SDS011;39629;51.400;5.494;2023-11-21T08:59:13;39.00;;;11.02;;
47896;SDS011;39629;51.400;5.494;2023-11-21T09:04:15;37.23;;;11.37;;
47896;SDS011;39629;51.400;5.494;2023-11-21T09:09:17;37.10;;;11.70;;
47896;SDS011;39629;51.400;5.494;2023-11-21T09:14:21;28.67;;;11.13;;
47896;SDS011;39629;51.400;5.494;2023-11-21T09:19:22;27.00;;;9.85;;
47896;SDS011;39629;51.400;5.494;2023-11-21T09:24:25;21.33;;;8.23;;
47896;SDS011;39629;51.400;5.494;2023-11-21T09:29:28;35.58;;;10.70;;
47896;SDS011;39629;51.400;5.494;2023-11-21T09:34:30;27.30;;;10.38;;
47896;SDS011;39629;51.400;5.494;2023-11-21T09:39:32;31.08;;;9.38;;
47896;SDS011;39629;51.400;5.494;2023-11-21T09:44:36;32.08;;;11.00;;
47896;SDS011;39629;51.400;5.494;2023-11-21T09:49:48;32.95;;;10.82;;
47896;SDS011;39629;51.400;5.494;2023-11-21T09:54:50;30.05;;;10.95;;
47896;SDS011;39629;51.400;5.494;2023-11-21T09:59:55;26.98;;;10.65;;
47896;SDS011;39629;51.400;5.494;2023-11-21T10:04:59;31.40;;;11.88;;
47896;SDS011;39629;51.400;5.494;2023-11-21T10:10:01;30.98;;;10.93;;
47896;SDS011;39629;51.400;5.494;2023-11-21T10:15:06;34.05;;;11.18;;
47896;SDS011;39629;51.400;5.494;2023-11-21T10:20:11;29.13;;;10.68;;
47896;SDS011;39629;51.400;5.494;2023-11-21T10:25:13;37.70;;;12.43;;
47896;SDS011;39629;51.400;5.494;2023-11-21T10:30:17;29.33;;;11.43;;
47896;SDS011;39629;51.400;5.494;2023-11-21T10:35:19;38.73;;;13.30;;
47896;SDS011;39629;51.400;5.494;2023-11-21T10:40:20;32.08;;;11.52;;
47896;SDS011;39629;51.400;5.494;2023-11-21T10:45:24;35.28;;;12.73;;
47896;SDS011;39629;51.400;5.494;2023-11-21T10:50:26;28.52;;;10.63;;
47896;SDS011;39629;51.400;5.494;2023-11-21T10:55:27;30.25;;;10.95;;
47896;SDS011;39629;51.400;5.494;2023-11-21T11:00:31;28.60;;;10.93;;
47896;SDS011;39629;51.400;5.494;2023-11-21T11:05:33;25.13;;;10.05;;
47896;SDS011;39629;51.400;5.494;2023-11-21T11:10:36;26.23;;;10.82;;
47896;SDS011;39629;51.400;5.494;2023-11-21T11:15:39;24.95;;;9.80;;
47896;SDS011;39629;51.400;5.494;2023-11-21T11:20:41;23.85;;;8.82;;
47896;SDS011;39629;51.400;5.494;2023-11-21T11:25:47;24.70;;;9.47;;
47896;SDS011;39629;51.400;5.494;2023-11-21T11:31:04;24.70;;;8.25;;
47896;SDS011;39629;51.400;5.494;2023-11-21T11:36:13;28.52;;;9.30;;
47896;SDS011;39629;51.400;5.494;2023-11-21T11:41:27;26.30;;;9.00;;
47896;SDS011;39629;51.400;5.494;2023-11-21T11:46:43;21.17;;;8.27;;
47896;SDS011;39629;51.400;5.494;2023-11-21T11:51:46;23.55;;;8.63;;
47896;SDS011;39629;51.400;5.494;2023-11-21T11:56:48;15.25;;;6.70;;
47896;SDS011;39629;51.400;5.494;2023-11-21T12:01:51;15.18;;;6.65;;
47896;SDS011;39629;51.400;5.494;2023-11-21T12:06:53;18.17;;;7.43;;
47896;SDS011;39629;51.400;5.494;2023-11-21T12:11:56;15.25;;;6.60;;
47896;SDS011;39629;51.400;5.494;2023-11-21T12:16:59;19.48;;;7.25;;
47896;SDS011;39629;51.400;5.494;2023-11-21T12:22:02;17.95;;;7.15;;
47896;SDS011;39629;51.400;5.494;2023-11-21T12:27:04;15.57;;;6.32;;
47896;SDS011;39629;51.400;5.494;2023-11-21T12:32:07;18.45;;;7.65;;
47896;SDS011;39629;51.400;5.494;2023-11-21T12:37:10;17.98;;;7.15;;
47896;SDS011;39629;51.400;5.494;2023-11-21T12:42:12;14.80;;;7.10;;
47896;SDS011;39629;51.400;5.494;2023-11-21T12:47:17;15.93;;;6.75;;
47896;SDS011;39629;51.400;5.494;2023-11-21T12:52:20;16.60;;;6.93;;
47896;SDS011;39629;51.400;5.494;2023-11-21T13:10:19;18.05;;;7.68;;
47896;SDS011;39629;51.400;5.494;2023-11-21T13:15:26;18.02;;;8.02;;
47896;SDS011;39629;51.400;5.494;2023-11-21T13:20:28;17.52;;;7.63;;
47896;SDS011;39629;51.400;5.494;2023-11-21T13:25:31;16.58;;;7.47;;
47896;SDS011;39629;51.400;5.494;2023-11-21T13:30:33;14.05;;;6.40;;
47896;SDS011;39629;51.400;5.494;2023-11-21T13:35:35;20.23;;;8.23;;
47896;SDS011;39629;51.400;5.494;2023-11-21T13:40:46;17.95;;;7.90;;
47896;SDS011;39629;51.400;5.494;2023-11-21T13:45:49;17.05;;;7.82;;
47896;SDS011;39629;51.400;5.494;2023-11-21T13:50:55;18.45;;;8.27;;
47896;SDS011;39629;51.400;5.494;2023-11-21T13:56:00;13.52;;;6.43;;
47896;SDS011;39629;51.400;5.494;2023-11-21T14:01:02;15.20;;;6.95;;
47896;SDS011;39629;51.400;5.494;2023-11-21T14:06:06;16.60;;;7.47;;
47896;SDS011;39629;51.400;5.494;2023-11-21T14:11:15;13.35;;;6.85;;
47896;SDS011;39629;51.400;5.494;2023-11-21T14:21:21;15.13;;;7.75;;
47896;SDS011;39629;51.400;5.494;2023-11-21T14:26:24;16.63;;;7.60;;
47896;SDS011;39629;51.400;5.494;2023-11-21T14:31:26;18.30;;;8.40;;
47896;SDS011;39629;51.400;5.494;2023-11-21T14:36:30;19.40;;;7.70;;
47896;SDS011;39629;51.400;5.494;2023-11-21T14:41:33;19.00;;;8.80;;
47896;SDS011;39629;51.400;5.494;2023-11-21T14:46:37;21.58;;;8.65;;
47896;SDS011;39629;51.400;5.494;2023-11-21T14:51:39;19.20;;;8.38;;
47896;SDS011;39629;51.400;5.494;2023-11-21T14:57:01;19.55;;;8.00;;
47896;SDS011;39629;51.400;5.494;2023-11-21T15:02:03;15.18;;;7.25;;
47896;SDS011;39629;51.400;5.494;2023-11-21T15:07:14;19.13;;;7.70;;
47896;SDS011;39629;51.400;5.494;2023-11-21T15:12:17;20.25;;;7.25;;
47896;SDS011;39629;51.400;5.494;2023-11-21T15:17:22;18.42;;;7.40;;
47896;SDS011;39629;51.400;5.494;2023-11-21T15:22:26;16.00;;;7.18;;
47896;SDS011;39629;51.400;5.494;2023-11-21T15:27:30;17.45;;;6.85;;
47896;SDS011;39629;51.400;5.494;2023-11-21T15:32:31;14.88;;;6.63;;
47896;SDS011;39629;51.400;5.494;2023-11-21T15:37:33;13.07;;;6.15;;
47896;SDS011;39629;51.400;5.494;2023-11-21T15:42:36;14.10;;;6.47;;
47896;SDS011;39629;51.400;5.494;2023-11-21T15:47:39;12.93;;;6.03;;
47896;SDS011;39629;51.400;5.494;2023-11-21T15:52:40;12.85;;;6.07;;
47896;SDS011;39629;51.400;5.494;2023-11-21T15:57:45;17.80;;;7.15;;
47896;SDS011;39629;51.400;5.494;2023-11-21T16:02:46;13.50;;;6.30;;
47896;SDS011;39629;51.400;5.494;2023-11-21T16:07:48;16.63;;;6.93;;
47896;SDS011;39629;51.400;5.494;2023-11-21T16:12:52;15.40;;;6.43;;
47896;SDS011;39629;51.400;5.494;2023-11-21T16:17:53;15.60;;;6.75;;
47896;SDS011;39629;51.400;5.494;2023-11-21T16:22:55;17.90;;;6.90;;
47896;SDS011;39629;51.400;5.494;2023-11-21T16:27:58;15.50;;;6.47;;
47896;SDS011;39629;51.400;5.494;2023-11-21T16:33:04;15.10;;;6.53;;
47896;SDS011;39629;51.400;5.494;2023-11-21T16:38:05;15.30;;;6.53;;
47896;SDS011;39629;51.400;5.494;2023-11-21T16:43:09;16.58;;;6.68;;
47896;SDS011;39629;51.400;5.494;2023-11-21T16:48:11;18.75;;;7.05;;
47896;SDS011;39629;51.400;5.494;2023-11-21T16:53:12;15.43;;;6.43;;
47896;SDS011;39629;51.400;5.494;2023-11-21T16:58:16;14.70;;;5.68;;
47896;SDS011;39629;51.400;5.494;2023-11-21T17:03:17;12.77;;;5.40;;
47896;SDS011;39629;51.400;5.494;2023-11-21T17:08:20;15.30;;;5.00;;
47896;SDS011;39629;51.400;5.494;2023-11-21T17:13:23;11.13;;;4.75;;
47896;SDS011;39629;51.400;5.494;2023-11-21T17:18:25;14.27;;;5.47;;
47896;SDS011;39629;51.400;5.494;2023-11-21T17:23:26;14.00;;;5.70;;
47896;SDS011;39629;51.400;5.494;2023-11-21T17:28:30;15.23;;;6.18;;
47896;SDS011;39629;51.400;5.494;2023-11-21T17:33:32;16.70;;;7.20;;
47896;SDS011;39629;51.400;5.494;2023-11-21T17:38:33;16.92;;;7.07;;
47896;SDS011;39629;51.400;5.494;2023-11-21T17:43:37;14.82;;;7.40;;
47896;SDS011;39629;51.400;5.494;2023-11-21T17:48:40;14.32;;;6.88;;
47896;SDS011;39629;51.400;5.494;2023-11-21T17:53:42;15.45;;;7.47;;
47896;SDS011;39629;51.400;5.494;2023-11-21T17:58:46;13.27;;;7.20;;
47896;SDS011;39629;51.400;5.494;2023-11-21T18:03:48;13.90;;;6.93;;
47896;SDS011;39629;51.400;5.494;2023-11-21T18:08:50;11.48;;;6.40;;
47896;SDS011;39629;51.400;5.494;2023-11-21T18:13:53;13.45;;;6.53;;
47896;SDS011;39629;51.400;5.494;2023-11-21T18:18:55;12.02;;;6.43;;
47896;SDS011;39629;51.400;5.494;2023-11-21T18:23:56;14.23;;;7.05;;
47896;SDS011;39629;51.400;5.494;2023-11-21T18:28:59;13.13;;;6.93;;
47896;SDS011;39629;51.400;5.494;2023-11-21T18:34:01;12.00;;;6.35;;
47896;SDS011;39629;51.400;5.494;2023-11-21T18:39:03;13.55;;;7.55;;
47896;SDS011;39629;51.400;5.494;2023-11-21T18:44:09;14.90;;;6.85;;
47896;SDS011;39629;51.400;5.494;2023-11-21T18:49:10;12.90;;;7.10;;
47896;SDS011;39629;51.400;5.494;2023-11-21T18:54:12;12.68;;;6.93;;
47896;SDS011;39629;51.400;5.494;2023-11-21T18:59:15;11.90;;;6.60;;
47896;SDS011;39629;51.400;5.494;2023-11-21T19:04:17;13.18;;;6.90;;
47896;SDS011;39629;51.400;5.494;2023-11-21T19:09:20;13.67;;;6.80;;
47896;SDS011;39629;51.400;5.494;2023-11-21T19:14:23;14.98;;;7.40;;
47896;SDS011;39629;51.400;5.494;2023-11-21T19:19:25;13.23;;;6.68;;
47896;SDS011;39629;51.400;5.494;2023-11-21T19:24:27;14.82;;;6.95;;
47896;SDS011;39629;51.400;5.494;2023-11-21T19:29:30;13.73;;;6.88;;
47896;SDS011;39629;51.400;5.494;2023-11-21T19:34:31;17.75;;;7.55;;
47896;SDS011;39629;51.400;5.494;2023-11-21T19:39:33;13.20;;;6.63;;
47896;SDS011;39629;51.400;5.494;2023-11-21T19:44:36;16.13;;;7.55;;
47896;SDS011;39629;51.400;5.494;2023-11-21T19:49:38;13.70;;;6.70;;
47896;SDS011;39629;51.400;5.494;2023-11-21T19:54:40;14.75;;;7.70;;
47896;SDS011;39629;51.400;5.494;2023-11-21T19:59:43;15.15;;;7.35;;
47896;SDS011;39629;51.400;5.494;2023-11-21T20:04:45;11.05;;;5.88;;
47896;SDS011;39629;51.400;5.494;2023-11-21T20:09:47;13.40;;;7.07;;
47896;SDS011;39629;51.400;5.494;2023-11-21T20:14:51;14.27;;;6.85;;
47896;SDS011;39629;51.400;5.494;2023-11-21T20:19:53;17.48;;;7.93;;
47896;SDS011;39629;51.400;5.494;2023-11-21T20:24:55;14.15;;;6.97;;
47896;SDS011;39629;51.400;5.494;2023-11-21T20:29:58;14.13;;;6.93;;
47896;SDS011;39629;51.400;5.494;2023-11-21T20:35:00;12.70;;;6.35;;
47896;SDS011;39629;51.400;5.494;2023-11-21T20:40:02;14.15;;;6.57;;
47896;SDS011;39629;51.400;5.494;2023-11-21T20:45:09;17.25;;;7.93;;
47896;SDS011;39629;51.400;5.494;2023-11-21T20:50:13;15.48;;;7.50;;
47896;SDS011;39629;51.400;5.494;2023-11-21T20:55:18;14.02;;;7.15;;
47896;SDS011;39629;51.400;5.494;2023-11-21T21:00:21;12.60;;;6.25;;
47896;SDS011;39629;51.400;5.494;2023-11-21T21:05:26;13.18;;;6.43;;
47896;SDS011;39629;51.400;5.494;2023-11-21T21:10:27;15.27;;;7.35;;
47896;SDS011;39629;51.400;5.494;2023-11-21T21:15:30;14.43;;;6.93;;
47896;SDS011;39629;51.400;5.494;2023-11-21T21:20:32;14.18;;;6.68;;
47896;SDS011;39629;51.400;5.494;2023-11-21T21:25:34;13.15;;;6.50;;
47896;SDS011;39629;51.400;5.494;2023-11-21T21:30:37;13.50;;;6.50;;
47896;SDS011;39629;51.400;5.494;2023-11-21T21:35:39;13.30;;;5.68;;
47896;SDS011;39629;51.400;5.494;2023-11-21T21:40:41;13.77;;;6.60;;
47896;SDS011;39629;51.400;5.494;2023-11-21T21:45:44;12.52;;;5.68;;
47896;SDS011;39629;51.400;5.494;2023-11-21T21:50:46;13.10;;;6.45;;
47896;SDS011;39629;51.400;5.494;2023-11-21T21:55:49;14.65;;;7.10;;
47896;SDS011;39629;51.400;5.494;2023-11-21T22:00:53;15.70;;;6.88;;
47896;SDS011;39629;51.400;5.494;2023-11-21T22:05:54;16.05;;;6.65;;
47896;SDS011;39629;51.400;5.494;2023-11-21T22:10:57;14.50;;;6.38;;
47896;SDS011;39629;51.400;5.494;2023-11-21T22:16:01;15.90;;;7.15;;
47896;SDS011;39629;51.400;5.494;2023-11-21T22:21:03;14.93;;;6.90;;
47896;SDS011;39629;51.400;5.494;2023-11-21T22:26:05;14.90;;;6.63;;
47896;SDS011;39629;51.400;5.494;2023-11-21T22:31:08;12.95;;;5.65;;
47896;SDS011;39629;51.400;5.494;2023-11-21T22:36:12;20.05;;;6.70;;
47896;SDS011;39629;51.400;5.494;2023-11-21T22:46:25;17.00;;;7.38;;
47896;SDS011;39629;51.400;5.494;2023-11-21T22:51:27;15.85;;;7.30;;
47896;SDS011;39629;51.400;5.494;2023-11-21T22:56:28;17.92;;;7.82;;
47896;SDS011;39629;51.400;5.494;2023-11-21T23:01:33;17.90;;;7.07;;
47896;SDS011;39629;51.400;5.494;2023-11-21T23:06:35;15.82;;;7.65;;
47896;SDS011;39629;51.400;5.494;2023-11-21T23:11:36;17.05;;;7.10;;
47896;SDS011;39629;51.400;5.494;2023-11-21T23:16:39;17.67;;;6.97;;
47896;SDS011;39629;51.400;5.494;2023-11-21T23:21:41;17.02;;;7.05;;
47896;SDS011;39629;51.400;5.494;2023-11-21T23:26:43;17.25;;;7.53;;
47896;SDS011;39629;51.400;5.494;2023-11-21T23:31:46;16.98;;;6.82;;
47896;SDS011;39629;51.400;5.494;2023-11-21T23:36:47;16.05;;;6.70;;
47896;SDS011;39629;51.400;5.494;2023-11-21T23:41:49;16.20;;;7.22;;
47896;SDS011;39629;51.400;5.494;2023-11-21T23:46:52;15.45;;;7.30;;
47896;SDS011;39629;51.400;5.494;2023-11-21T23:51:53;12.98;;;6.50;;
47896;SDS011;39629;51.400;5.494;2023-11-21T23:56:56;15.40;;;6.82;;
